Accueil
METAR-TAF:

METAR-TAF

Aéroports :

Aéroport international de Harbin Taiping

Harbin, Chine

latitude: 45-45N, longitude: 126-46E, altitude: 143 m

Observation

Le bulletin a été fait il y a 59 minutes, à 12:00 UTC
Vent 6 kt de ouest/nord-ouest
Température 0°C
Humidité 43%
Pression 1025 hPa
Visibilité 10 km ou plus
pas de nuages en-dessous de 1500 mètres et pas de cumulonimbus.

METAR: ZYHB 041200Z 29003MPS CAVOK 00/M11 Q1025 NOSIG

Heure: 20:59 (12:59 UTC)

Prévision

Le bulletin a été fait il y a 4 heures et 2 minutes, à 08:57 UTC
Prévision valable du 04 à 12 UTC au 05 à 12 UTC
Vent 10 kt de nord/nord-ouest
Visibilité: 6000 m
Quelques nuages à une hauteur de 3000 ft

TAF: ZYHB 040857Z 0412/0512 33005MPS 6000 FEW030 TX08/0506Z TNM04/0421Z

Observations et prévisions météorologiques de plus de 4000 aéroports (messages METAR et TAF).

Les stations disponibles sont représentées par des disques jaunes et rouges sur la carte.

Passer la souris dessus pour voir le nom de la station.

Cliquer dessus pour voir les observations et prévisions météorologiques.

Pour changer de carte: cliquez sur les boutons verts avec une croix noire pour zoomer, sur le bouton vert avec un tiret pour effectuer un zoom arrière, ou sur les flèches vertes pour les cartes adjacentes.


METAR-TAF: